This is the latest recevied weather packets stored in our database for station/object LZ1BAB-WX. If no packets are shown the sender has not sent any weather packets the latest 1 day(s).
| Time | Temp. | Humidity | Pressure | Rain* | Wind** | Luminosity | Snow |
|---|---|---|---|---|---|---|---|
| 1778087825 | 19.44° C | 60% | 1015.4 hPa | 0 mm | - | 3 W/m² | - |
| 1778087466 | 19.44° C | 59% | 1015.3 hPa | 0 mm | - | 5 W/m² | - |
| 1778087226 | 20° C | 59% | 1015.2 hPa | 0 mm | - | 6 W/m² | - |
| 1778086866 | 20.56° C | 57% | 1015.1 hPa | 0 mm | - | 10 W/m² | - |
| 1778086746 | 20.56° C | 58% | 1015.2 hPa | 0 mm | - | 12 W/m² | - |
| 1778086626 | 20.56° C | 57% | 1015.3 hPa | 0 mm | - | 13 W/m² | - |
| 1778086386 | 21.11° C | 56% | 1015.2 hPa | 0 mm | - | 16 W/m² | - |
| 1778086147 | 21.11° C | 55% | 1015.1 hPa | 0 mm | - | 19 W/m² | - |
| 1778085666 | 21.67° C | 53% | 1015.1 hPa | 0 mm | - | 32 W/m² | - |
| 1778085426 | 21.67° C | 52% | 1014.9 hPa | 0 mm | - | 36 W/m² | - |
| 1778085306 | 21.67° C | 51% | 1015.2 hPa | 0 mm | - | 40 W/m² | - |
| 1778085186 | 22.22° C | 50% | 1014.9 hPa | 0 mm | - | 44 W/m² | - |
| 1778085066 | 22.22° C | 51% | 1014.8 hPa | 0 mm | - | 41 W/m² | - |
| 1778083746 | 22.78° C | 49% | 1015 hPa | 0 mm | - | 105 W/m² | - |
| 1778083026 | 23.33° C | 49% | 1014.9 hPa | 0 mm | - | 107 W/m² | - |
| 1778082546 | 23.33° C | 48% | 1014.8 hPa | 0 mm | - | 117 W/m² | - |
| 1778082426 | 23.33° C | 47% | 1014.8 hPa | 0 mm | - | 120 W/m² | - |
| 1778082185 | 23.33° C | 46% | 1014.6 hPa | 0 mm | - | 128 W/m² | - |
| 1778081706 | 23.89° C | 45% | 1014.6 hPa | 0 mm | - | 143 W/m² | - |
| 1778081585 | 23.89° C | 45% | 1014.7 hPa | 0 mm | - | 148 W/m² | - |
| 1778081226 | 23.89° C | 46% | 1014.6 hPa | 0 mm | - | 155 W/m² | - |
| 1778080746 | 23.89° C | 45% | 1014.6 hPa | 0 mm | - | 174 W/m² | - |
| 1778080625 | 23.33° C | 47% | 1014.6 hPa | 0 mm | - | 177 W/m² | - |
| 1778079545 | 22.78° C | 46% | 1014.8 hPa | 0 mm | - | 95 W/m² | - |
| 1778079426 | 22.78° C | 46% | 1014.8 hPa | 0 mm | - | 87 W/m² | - |
* Rain latest hour (hover to see other rain measurements)
** Current wind speed in m/s (hover to see current wind gust speed)